Cosco Kaohsiung — VREM3 — position and weather

sailwx.info

Track history (hours):
 
Tides and Currents Weather Stations Pressure Air Temp Water Temp Dewpoint Dewpoint Depression Visibility Wind Speed Wind Dir Waves Ship Positions

Cosco Kaohsiung

Last reported at 2014-Sep-17 08:31 UTC. Time now 2014-Sep-17 09:35 UTC.
Position N 44°06' E 009°51'.

Length 349 m; draft 11.8 m.

Type: Ship (hazmat cat A). MMSI: 477136800.

Date/timePositionNaut miles runAvg speedWind from/ knotsBaromVisibWave heightAir tempDewpointWater temp
2014-Sep-17 08:31N 44°06' E 009°51'0 0.0
2014-Sep-17 07:31N 44°06' E 009°51'0 0.0
2014-Sep-17 06:31N 44°06' E 009°51'0 0.0
2014-Sep-17 05:31N 44°06' E 009°51'0 0.0
2014-Sep-17 04:31N 44°06' E 009°51'0 0.0
2014-Sep-17 03:31N 44°06' E 009°51'0 0.0
2014-Sep-17 02:31N 44°06' E 009°51'0 0.0
2014-Sep-17 01:31N 44°06' E 009°51'0 0.0
2014-Sep-17 00:31N 44°06' E 009°51'0 0.0
2014-Sep-16 23:31N 44°06' E 009°51'0 0.0
2014-Sep-16 22:31N 44°06' E 009°51'0 0.0
2014-Sep-16 21:31N 44°06' E 009°51'0 0.0
2014-Sep-16 20:31N 44°06' E 009°51'0 0.0
2014-Sep-16 19:31N 44°06' E 009°51'0 0.0
2014-Sep-16 18:31N 44°06' E 009°51'0 0.0
2014-Sep-16 17:31N 44°06' E 009°51'0 0.0
2014-Sep-16 16:31N 44°06' E 009°51'0 0.0
2014-Sep-16 15:31N 44°06' E 009°51'0 0.0
2014-Sep-16 14:31N 44°06' E 009°51'0 0.0
2014-Sep-16 13:31N 44°06' E 009°51'0 0.0
2014-Sep-16 12:31N 44°06' E 009°51'0 0.0
2014-Sep-16 11:31N 44°06' E 009°51'0 0.0
2014-Sep-16 10:31N 44°06' E 009°51'0 0.0
2014-Sep-16 09:31N 44°06' E 009°51'0 0.0
2014-Sep-16 08:31N 44°06' E 009°51'0 0.0
2014-Sep-16 07:31N 44°06' E 009°51'0 0.0
2014-Sep-16 06:31N 44°06' E 009°51'0 0.0
2014-Sep-16 05:31N 44°06' E 009°51'0 0.0
2014-Sep-16 04:31N 44°06' E 009°51'0 0.0
2014-Sep-16 03:31N 44°06' E 009°51'0 0.0
2014-Sep-16 02:31N 44°06' E 009°51'0 0.0
2014-Sep-16 01:31N 44°06' E 009°51'0 0.0
2014-Sep-16 00:31N 44°06' E 009°51'0 0.0
2014-Sep-15 23:31N 44°06' E 009°51'0 0.0
2014-Sep-15 22:31N 44°06' E 009°51'0 0.0
2014-Sep-15 21:31N 44°06' E 009°51'0 0.0
2014-Sep-15 20:31N 44°06' E 009°51'0 0.0
2014-Sep-15 19:31N 44°06' E 009°51'0 0.0
2014-Sep-15 18:31N 44°06' E 009°51'0 0.0
2014-Sep-15 17:28N 44°06' E 009°51'0 0.0
2014-Sep-15 16:31N 44°06' E 009°51'0 0.0
2014-Sep-15 15:31N 44°06' E 009°51'1 0.8
2014-Sep-15 14:33N 44°06' E 009°51'9 8.5
2014-Sep-15 13:34N 43°58' E 009°56'1817.7
2014-Sep-15 12:33N 43°41' E 009°50'1817.9
2014-Sep-15 11:34N 43°23' E 009°44'1818.4
2014-Sep-15 10:33N 43°05' E 009°39'2417.7
2014-Sep-15 09:13N 42°42' E 009°47'1417.8
2014-Sep-15 08:26N 42°28' E 009°51'22314.7
2014-Sep-14 17:14N 39°52' E 013°23'6914.6
2014-Sep-14 12:32N 39°08' E 014°31'45013.6
2014-Sep-13 03:34N 36°13' E 023°14'1616.1
2014-Sep-13 02:33N 36°28' E 023°22'1615.8
2014-Sep-13 01:33N 36°43' E 023°28'1515.4
2014-Sep-13 00:34N 36°58' E 023°35'1515.0
2014-Sep-12 23:34N 37°12' E 023°39'1615.2
2014-Sep-12 22:32N 37°28' E 023°41'1515.2
2014-Sep-12 21:33N 37°43' E 023°40'1414.1
2014-Sep-12 20:34N 37°56' E 023°36'1 0.8
2014-Sep-12 19:31N 37°57' E 023°35'0 0.0
2014-Sep-12 18:31N 37°57' E 023°35'0 0.0
2014-Sep-12 17:31N 37°57' E 023°35'0 0.0
2014-Sep-12 16:25N 37°57' E 023°35'0 0.0
2014-Sep-12 15:31N 37°57' E 023°35'0 0.0
2014-Sep-12 14:31N 37°57' E 023°35'0 0.0
2014-Sep-12 13:31N 37°57' E 023°35'0 0.0
2014-Sep-12 12:31N 37°57' E 023°35'0 0.0
2014-Sep-12 11:31N 37°57' E 023°35'0 0.0
2014-Sep-12 10:31N 37°57' E 023°35'0 0.0
2014-Sep-12 09:31N 37°57' E 023°35'0 0.0
2014-Sep-12 08:31N 37°57' E 023°35'0 0.0
2014-Sep-12 07:31N 37°57' E 023°35'0 0.0
2014-Sep-12 06:31N 37°57' E 023°35'0 0.0
2014-Sep-12 05:31N 37°57' E 023°35'0 0.2
2014-Sep-12 04:33N 37°57' E 023°35'3 3.4
2014-Sep-12 03:33N 37°54' E 023°37'7 7.1
2014-Sep-12 02:33N 37°48' E 023°41'8 8.2
2014-Sep-12 01:32N 37°40' E 023°46'1815.6
2014-Sep-12 00:23N 37°23' E 023°51'1416.3
2014-Sep-11 23:33N 37°10' E 023°56'1616.4
2014-Sep-11 22:33N 36°54' E 024°02'1716.6
2014-Sep-11 21:33N 36°39' E 024°12'1716.9
2014-Sep-11 20:33N 36°25' E 024°23'1615.9
2014-Sep-11 19:33N 36°14' E 024°36'1615.9
2014-Sep-11 18:33N 36°06' E 024°54'1716.6
2014-Sep-11 17:33N 35°58' E 025°12'1716.9
2014-Sep-11 16:33N 35°50' E 025°30'1716.7
2014-Sep-11 15:33N 35°41' E 025°47'  
Track history (hours):
 
Tides and Currents Weather Stations Pressure Air Temp Water Temp Dewpoint Dewpoint Depression Visibility Wind Speed Wind Dir Waves Ship Positions

Cosco Kaohsiung

Last reported at 2014-Sep-17 08:31 UTC. Time now 2014-Sep-17 09:35 UTC.
Position N 44°06' E 009°51'.

Length 349 m; draft 11.8 m.

Type: Ship (hazmat cat A). MMSI: 477136800.

Date/timePositionNaut miles runAvg speedWind from/ knotsBaromVisibWave heightAir tempDewpointWater temp
2014-Sep-17 08:31N 44°06' E 009°51'0 0.0
2014-Sep-17 07:31N 44°06' E 009°51'0 0.0
2014-Sep-17 06:31N 44°06' E 009°51'0 0.0
2014-Sep-17 05:31N 44°06' E 009°51'0 0.0
2014-Sep-17 04:31N 44°06' E 009°51'0 0.0
2014-Sep-17 03:31N 44°06' E 009°51'0 0.0
2014-Sep-17 02:31N 44°06' E 009°51'0 0.0
2014-Sep-17 01:31N 44°06' E 009°51'0 0.0
2014-Sep-17 00:31N 44°06' E 009°51'0 0.0
2014-Sep-16 23:31N 44°06' E 009°51'0 0.0
2014-Sep-16 22:31N 44°06' E 009°51'0 0.0
2014-Sep-16 21:31N 44°06' E 009°51'0 0.0
2014-Sep-16 20:31N 44°06' E 009°51'0 0.0
2014-Sep-16 19:31N 44°06' E 009°51'0 0.0
2014-Sep-16 18:31N 44°06' E 009°51'0 0.0
2014-Sep-16 17:31N 44°06' E 009°51'0 0.0
2014-Sep-16 16:31N 44°06' E 009°51'0 0.0
2014-Sep-16 15:31N 44°06' E 009°51'0 0.0
2014-Sep-16 14:31N 44°06' E 009°51'0 0.0
2014-Sep-16 13:31N 44°06' E 009°51'0 0.0
2014-Sep-16 12:31N 44°06' E 009°51'0 0.0
2014-Sep-16 11:31N 44°06' E 009°51'0 0.0
2014-Sep-16 10:31N 44°06' E 009°51'0 0.0
2014-Sep-16 09:31N 44°06' E 009°51'0 0.0
2014-Sep-16 08:31N 44°06' E 009°51'0 0.0
2014-Sep-16 07:31N 44°06' E 009°51'0 0.0
2014-Sep-16 06:31N 44°06' E 009°51'0 0.0
2014-Sep-16 05:31N 44°06' E 009°51'0 0.0
2014-Sep-16 04:31N 44°06' E 009°51'0 0.0
2014-Sep-16 03:31N 44°06' E 009°51'0 0.0
2014-Sep-16 02:31N 44°06' E 009°51'0 0.0
2014-Sep-16 01:31N 44°06' E 009°51'0 0.0
2014-Sep-16 00:31N 44°06' E 009°51'0 0.0
2014-Sep-15 23:31N 44°06' E 009°51'0 0.0
2014-Sep-15 22:31N 44°06' E 009°51'0 0.0
2014-Sep-15 21:31N 44°06' E 009°51'0 0.0
2014-Sep-15 20:31N 44°06' E 009°51'0 0.0
2014-Sep-15 19:31N 44°06' E 009°51'0 0.0
2014-Sep-15 18:31N 44°06' E 009°51'0 0.0
2014-Sep-15 17:28N 44°06' E 009°51'0 0.0
2014-Sep-15 16:31N 44°06' E 009°51'0 0.0
2014-Sep-15 15:31N 44°06' E 009°51'1 0.8
2014-Sep-15 14:33N 44°06' E 009°51'9 8.5
2014-Sep-15 13:34N 43°58' E 009°56'1817.7
2014-Sep-15 12:33N 43°41' E 009°50'1817.9
2014-Sep-15 11:34N 43°23' E 009°44'1818.4
2014-Sep-15 10:33N 43°05' E 009°39'2417.7
2014-Sep-15 09:13N 42°42' E 009°47'1417.8
2014-Sep-15 08:26N 42°28' E 009°51'22314.7
2014-Sep-14 17:14N 39°52' E 013°23'6914.6
2014-Sep-14 12:32N 39°08' E 014°31'45013.6
2014-Sep-13 03:34N 36°13' E 023°14'1616.1
2014-Sep-13 02:33N 36°28' E 023°22'1615.8
2014-Sep-13 01:33N 36°43' E 023°28'1515.4
2014-Sep-13 00:34N 36°58' E 023°35'1515.0
2014-Sep-12 23:34N 37°12' E 023°39'1615.2
2014-Sep-12 22:32N 37°28' E 023°41'1515.2
2014-Sep-12 21:33N 37°43' E 023°40'1414.1
2014-Sep-12 20:34N 37°56' E 023°36'1 0.8
2014-Sep-12 19:31N 37°57' E 023°35'0 0.0
2014-Sep-12 18:31N 37°57' E 023°35'0 0.0
2014-Sep-12 17:31N 37°57' E 023°35'0 0.0
2014-Sep-12 16:25N 37°57' E 023°35'0 0.0
2014-Sep-12 15:31N 37°57' E 023°35'0 0.0
2014-Sep-12 14:31N 37°57' E 023°35'0 0.0
2014-Sep-12 13:31N 37°57' E 023°35'0 0.0
2014-Sep-12 12:31N 37°57' E 023°35'0 0.0
2014-Sep-12 11:31N 37°57' E 023°35'0 0.0
2014-Sep-12 10:31N 37°57' E 023°35'0 0.0
2014-Sep-12 09:31N 37°57' E 023°35'0 0.0
2014-Sep-12 08:31N 37°57' E 023°35'0 0.0
2014-Sep-12 07:31N 37°57' E 023°35'0 0.0
2014-Sep-12 06:31N 37°57' E 023°35'0 0.0
2014-Sep-12 05:31N 37°57' E 023°35'0 0.2
2014-Sep-12 04:33N 37°57' E 023°35'3 3.4
2014-Sep-12 03:33N 37°54' E 023°37'7 7.1
2014-Sep-12 02:33N 37°48' E 023°41'8 8.2
2014-Sep-12 01:32N 37°40' E 023°46'1815.6
2014-Sep-12 00:23N 37°23' E 023°51'1416.3
2014-Sep-11 23:33N 37°10' E 023°56'1616.4
2014-Sep-11 22:33N 36°54' E 024°02'1716.6
2014-Sep-11 21:33N 36°39' E 024°12'1716.9
2014-Sep-11 20:33N 36°25' E 024°23'1615.9
2014-Sep-11 19:33N 36°14' E 024°36'1615.9
2014-Sep-11 18:33N 36°06' E 024°54'1716.6
2014-Sep-11 17:33N 35°58' E 025°12'1716.9
2014-Sep-11 16:33N 35°50' E 025°30'1716.7
2014-Sep-11 15:33N 35°41' E 025°47'  

Dump ship's entire track history